sensor_id;sensor_type;location;lat;lon;timestamp;pressure;altitude;pressure_sealevel;temperature;humidity
61961;BME280;47923;42.506;24.192;2024-01-06T00:02:03;95209.09;;;2.48;78.39
61961;BME280;47923;42.506;24.192;2024-01-06T00:04:28;95183.03;;;2.28;78.41
61961;BME280;47923;42.506;24.192;2024-01-06T00:06:54;95417.03;;;3.79;77.77
61961;BME280;47923;42.506;24.192;2024-01-06T00:09:19;95412.47;;;3.80;78.24
61961;BME280;47923;42.506;24.192;2024-01-06T00:11:45;95260.28;;;2.85;78.01
61961;BME280;47923;42.506;24.192;2024-01-06T00:14:10;95343.34;;;3.44;77.74
61961;BME280;47923;42.506;24.192;2024-01-06T00:16:36;95355.44;;;3.41;77.93
61961;BME280;47923;42.506;24.192;2024-01-06T00:19:01;95374.00;;;3.55;77.50
61961;BME280;47923;42.506;24.192;2024-01-06T00:21:27;95257.91;;;2.83;77.72
61961;BME280;47923;42.506;24.192;2024-01-06T00:23:53;95413.91;;;3.77;77.63
61961;BME280;47923;42.506;24.192;2024-01-06T00:26:21;95441.22;;;3.74;77.28
61961;BME280;47923;42.506;24.192;2024-01-06T00:28:46;95426.31;;;3.73;77.91
61961;BME280;47923;42.506;24.192;2024-01-06T00:31:14;95394.72;;;3.41;78.90
61961;BME280;47923;42.506;24.192;2024-01-06T00:33:41;95390.63;;;3.35;78.45
61961;BME280;47923;42.506;24.192;2024-01-06T00:36:07;95414.06;;;3.46;78.91
61961;BME280;47923;42.506;24.192;2024-01-06T00:38:32;95086.75;;;1.37;78.29
61961;BME280;47923;42.506;24.192;2024-01-06T00:40:58;95417.84;;;3.63;79.45
61961;BME280;47923;42.506;24.192;2024-01-06T00:43:23;95348.19;;;3.16;79.97
61961;BME280;47923;42.506;24.192;2024-01-06T00:45:49;95397.53;;;3.36;79.31
61961;BME280;47923;42.506;24.192;2024-01-06T00:48:14;95423.00;;;3.50;80.00
61961;BME280;47923;42.506;24.192;2024-01-06T00:50:40;95356.66;;;3.00;79.86
61961;BME280;47923;42.506;24.192;2024-01-06T00:53:05;95298.53;;;2.63;79.81
61961;BME280;47923;42.506;24.192;2024-01-06T00:55:31;95406.66;;;3.43;79.89
61961;BME280;47923;42.506;24.192;2024-01-06T00:57:56;95264.63;;;2.55;80.15
61961;BME280;47923;42.506;24.192;2024-01-06T01:00:22;95255.06;;;2.54;79.95
61961;BME280;47923;42.506;24.192;2024-01-06T01:02:48;95366.75;;;3.29;79.80
61961;BME280;47923;42.506;24.192;2024-01-06T01:05:13;95381.97;;;3.29;79.94
61961;BME280;47923;42.506;24.192;2024-01-06T01:07:39;95298.09;;;2.78;79.33
61961;BME280;47923;42.506;24.192;2024-01-06T01:10:04;95375.22;;;3.23;79.41
61961;BME280;47923;42.506;24.192;2024-01-06T01:12:31;95381.66;;;3.22;79.42
61961;BME280;47923;42.506;24.192;2024-01-06T01:14:56;95365.78;;;2.99;79.46
61961;BME280;47923;42.506;24.192;2024-01-06T01:17:22;95386.53;;;3.20;79.49
61961;BME280;47923;42.506;24.192;2024-01-06T01:19:47;95266.66;;;2.49;79.70
61961;BME280;47923;42.506;24.192;2024-01-06T01:22:13;95110.47;;;1.48;79.82
61961;BME280;47923;42.506;24.192;2024-01-06T01:24:39;95364.22;;;3.16;80.55
61961;BME280;47923;42.506;24.192;2024-01-06T01:27:05;95370.50;;;3.11;80.12
61961;BME280;47923;42.506;24.192;2024-01-06T01:29:30;95381.19;;;3.02;80.14
61961;BME280;47923;42.506;24.192;2024-01-06T01:31:56;95366.72;;;2.95;79.74
61961;BME280;47923;42.506;24.192;2024-01-06T01:34:21;95324.25;;;2.59;80.20
61961;BME280;47923;42.506;24.192;2024-01-06T01:36:47;95176.03;;;1.44;80.39
61961;BME280;47923;42.506;24.192;2024-01-06T01:39:12;95386.53;;;2.63;80.16
61961;BME280;47923;42.506;24.192;2024-01-06T01:41:37;95335.25;;;2.17;80.34
61961;BME280;47923;42.506;24.192;2024-01-06T01:44:03;95058.19;;;0.27;80.98
61961;BME280;47923;42.506;24.192;2024-01-06T01:46:29;95366.44;;;2.17;82.22
61961;BME280;47923;42.506;24.192;2024-01-06T01:48:55;95419.31;;;2.24;82.84
61961;BME280;47923;42.506;24.192;2024-01-06T01:51:21;95382.63;;;2.20;83.60
61961;BME280;47923;42.506;24.192;2024-01-06T01:53:49;95355.34;;;1.92;83.36
61961;BME280;47923;42.506;24.192;2024-01-06T01:56:15;95381.25;;;2.01;82.95
61961;BME280;47923;42.506;24.192;2024-01-06T01:58:41;95385.81;;;2.00;83.10
61961;BME280;47923;42.506;24.192;2024-01-06T02:01:08;95386.53;;;1.92;83.54
61961;BME280;47923;42.506;24.192;2024-01-06T02:03:34;95281.03;;;1.06;83.72
61961;BME280;47923;42.506;24.192;2024-01-06T02:06:00;95313.63;;;1.34;83.76
61961;BME280;47923;42.506;24.192;2024-01-06T02:08:25;95312.34;;;1.32;84.11
61961;BME280;47923;42.506;24.192;2024-01-06T02:10:56;95299.59;;;1.20;84.08
61961;BME280;47923;42.506;24.192;2024-01-06T02:13:22;95350.22;;;1.74;84.19
61961;BME280;47923;42.506;24.192;2024-01-06T02:15:48;95295.16;;;1.38;83.32
61961;BME280;47923;42.506;24.192;2024-01-06T02:18:14;95248.00;;;1.07;82.81
61961;BME280;47923;42.506;24.192;2024-01-06T02:20:44;95345.00;;;1.69;82.86
61961;BME280;47923;42.506;24.192;2024-01-06T02:23:11;95357.19;;;1.61;83.04
61961;BME280;47923;42.506;24.192;2024-01-06T02:25:37;95377.34;;;1.53;83.54
61961;BME280;47923;42.506;24.192;2024-01-06T02:28:02;95372.44;;;1.47;84.02
61961;BME280;47923;42.506;24.192;2024-01-06T02:30:28;95351.84;;;1.38;85.42
61961;BME280;47923;42.506;24.192;2024-01-06T02:32:53;95370.31;;;1.35;85.90
61961;BME280;47923;42.506;24.192;2024-01-06T02:35:20;95348.53;;;1.33;86.19
61961;BME280;47923;42.506;24.192;2024-01-06T02:37:46;95345.28;;;1.36;86.42
61961;BME280;47923;42.506;24.192;2024-01-06T02:40:11;95154.75;;;0.23;86.16
61961;BME280;47923;42.506;24.192;2024-01-06T02:42:37;95334.38;;;1.46;85.39
61961;BME280;47923;42.506;24.192;2024-01-06T02:45:03;95341.28;;;1.47;84.88
61961;BME280;47923;42.506;24.192;2024-01-06T02:47:28;95284.22;;;1.17;84.43
61961;BME280;47923;42.506;24.192;2024-01-06T02:49:54;95314.78;;;1.42;84.32
61961;BME280;47923;42.506;24.192;2024-01-06T02:52:19;94909.91;;;-1.32;84.29
61961;BME280;47923;42.506;24.192;2024-01-06T02:54:44;95212.78;;;0.66;84.35
61961;BME280;47923;42.506;24.192;2024-01-06T02:57:10;95335.00;;;1.43;85.06
61961;BME280;47923;42.506;24.192;2024-01-06T02:59:38;95319.25;;;1.55;83.82
61961;BME280;47923;42.506;24.192;2024-01-06T03:02:04;94960.91;;;-0.72;83.84
61961;BME280;47923;42.506;24.192;2024-01-06T03:04:29;95252.91;;;1.14;84.05
61961;BME280;47923;42.506;24.192;2024-01-06T03:06:54;95279.16;;;1.29;84.10
61961;BME280;47923;42.506;24.192;2024-01-06T03:09:20;95347.09;;;1.72;84.45
61961;BME280;47923;42.506;24.192;2024-01-06T03:11:45;95334.97;;;1.65;84.83
61961;BME280;47923;42.506;24.192;2024-01-06T03:14:11;95320.56;;;1.66;85.43
61961;BME280;47923;42.506;24.192;2024-01-06T03:16:36;95176.00;;;0.59;84.98
61961;BME280;47923;42.506;24.192;2024-01-06T03:19:03;95322.41;;;1.57;85.04
61961;BME280;47923;42.506;24.192;2024-01-06T03:21:28;95212.00;;;0.65;85.17
61961;BME280;47923;42.506;24.192;2024-01-06T03:23:53;95316.34;;;1.43;85.64
61961;BME280;47923;42.506;24.192;2024-01-06T03:26:20;95157.06;;;0.38;86.14
61961;BME280;47923;42.506;24.192;2024-01-06T03:28:46;95317.56;;;1.37;86.25
61961;BME280;47923;42.506;24.192;2024-01-06T03:31:11;95235.03;;;0.70;86.07
61961;BME280;47923;42.506;24.192;2024-01-06T03:33:36;95310.00;;;1.30;86.22
61961;BME280;47923;42.506;24.192;2024-01-06T03:36:06;95165.09;;;0.24;86.63
61961;BME280;47923;42.506;24.192;2024-01-06T03:38:32;95246.47;;;0.93;86.98
61961;BME280;47923;42.506;24.192;2024-01-06T03:40:57;95238.25;;;0.80;86.73
61961;BME280;47923;42.506;24.192;2024-01-06T03:43:23;95245.63;;;0.83;86.36
61961;BME280;47923;42.506;24.192;2024-01-06T03:45:48;95222.16;;;0.63;86.53
61961;BME280;47923;42.506;24.192;2024-01-06T03:48:14;95293.44;;;1.11;86.30
61961;BME280;47923;42.506;24.192;2024-01-06T03:50:39;95255.44;;;0.97;85.88
61961;BME280;47923;42.506;24.192;2024-01-06T03:53:04;95231.34;;;0.79;85.60
61961;BME280;47923;42.506;24.192;2024-01-06T03:55:30;95311.28;;;1.33;85.71
61961;BME280;47923;42.506;24.192;2024-01-06T03:57:55;95319.44;;;1.36;85.59
61961;BME280;47923;42.506;24.192;2024-01-06T04:00:21;95321.97;;;1.42;85.14
61961;BME280;47923;42.506;24.192;2024-01-06T04:02:46;95319.19;;;1.47;85.34
61961;BME280;47923;42.506;24.192;2024-01-06T04:05:12;94982.41;;;-0.73;85.05
61961;BME280;47923;42.506;24.192;2024-01-06T04:07:37;95049.03;;;-0.25;85.07
61961;BME280;47923;42.506;24.192;2024-01-06T04:10:03;95238.81;;;0.91;85.29
61961;BME280;47923;42.506;24.192;2024-01-06T04:12:29;95137.50;;;0.34;84.88
61961;BME280;47923;42.506;24.192;2024-01-06T04:14:54;95189.00;;;0.83;84.52
61961;BME280;47923;42.506;24.192;2024-01-06T04:17:19;95198.56;;;0.84;84.28
61961;BME280;47923;42.506;24.192;2024-01-06T04:19:45;95207.47;;;0.88;84.56
61961;BME280;47923;42.506;24.192;2024-01-06T04:22:10;95223.53;;;0.97;84.56
61961;BME280;47923;42.506;24.192;2024-01-06T04:24:36;95173.78;;;0.75;84.37
61961;BME280;47923;42.506;24.192;2024-01-06T04:27:04;95296.66;;;1.53;84.55
61961;BME280;47923;42.506;24.192;2024-01-06T04:29:30;95296.19;;;1.51;84.80
61961;BME280;47923;42.506;24.192;2024-01-06T04:31:55;95072.38;;;0.01;84.47
61961;BME280;47923;42.506;24.192;2024-01-06T04:34:20;95142.28;;;0.46;84.96
61961;BME280;47923;42.506;24.192;2024-01-06T04:36:46;95155.06;;;0.44;85.47
61961;BME280;47923;42.506;24.192;2024-01-06T04:39:11;94879.09;;;-1.28;85.20
61961;BME280;47923;42.506;24.192;2024-01-06T04:41:39;95284.94;;;1.31;85.50
61961;BME280;47923;42.506;24.192;2024-01-06T04:44:05;95271.34;;;1.33;85.15
61961;BME280;47923;42.506;24.192;2024-01-06T04:46:31;95291.78;;;1.46;85.43
61961;BME280;47923;42.506;24.192;2024-01-06T04:48:57;95241.41;;;1.05;85.14
61961;BME280;47923;42.506;24.192;2024-01-06T04:51:22;95308.41;;;1.52;85.06
61961;BME280;47923;42.506;24.192;2024-01-06T04:53:48;95238.94;;;1.08;84.98
61961;BME280;47923;42.506;24.192;2024-01-06T04:56:13;95266.56;;;1.21;84.93
61961;BME280;47923;42.506;24.192;2024-01-06T04:58:39;95315.19;;;1.58;84.75
61961;BME280;47923;42.506;24.192;2024-01-06T05:01:04;95318.53;;;1.63;84.85
61961;BME280;47923;42.506;24.192;2024-01-06T05:03:30;95274.50;;;1.35;85.11
61961;BME280;47923;42.506;24.192;2024-01-06T05:05:56;95317.78;;;1.72;85.03
61961;BME280;47923;42.506;24.192;2024-01-06T05:08:21;95304.97;;;1.51;85.24
61961;BME280;47923;42.506;24.192;2024-01-06T05:10:48;95324.69;;;1.73;85.09
61961;BME280;47923;42.506;24.192;2024-01-06T05:13:14;95314.81;;;1.73;85.56
61961;BME280;47923;42.506;24.192;2024-01-06T05:15:39;95230.34;;;1.12;85.81
61961;BME280;47923;42.506;24.192;2024-01-06T05:18:05;95251.38;;;1.22;85.86
61961;BME280;47923;42.506;24.192;2024-01-06T05:20:31;95223.75;;;1.09;85.75
61961;BME280;47923;42.506;24.192;2024-01-06T05:22:56;95265.72;;;1.34;85.75
61961;BME280;47923;42.506;24.192;2024-01-06T05:25:22;95194.81;;;0.85;86.25
61961;BME280;47923;42.506;24.192;2024-01-06T05:27:47;95245.13;;;1.18;86.34
61961;BME280;47923;42.506;24.192;2024-01-06T05:30:12;95231.81;;;1.18;86.60
61961;BME280;47923;42.506;24.192;2024-01-06T05:32:38;95188.44;;;0.95;85.89
61961;BME280;47923;42.506;24.192;2024-01-06T05:35:04;95317.66;;;1.77;85.58
61961;BME280;47923;42.506;24.192;2024-01-06T05:37:30;95203.75;;;1.12;85.75
61961;BME280;47923;42.506;24.192;2024-01-06T05:39:56;95303.59;;;1.85;85.86
61961;BME280;47923;42.506;24.192;2024-01-06T05:42:23;95096.00;;;0.47;85.10
61961;BME280;47923;42.506;24.192;2024-01-06T05:44:49;95306.75;;;1.87;84.90
61961;BME280;47923;42.506;24.192;2024-01-06T05:47:14;95017.41;;;0.01;85.07
61961;BME280;47923;42.506;24.192;2024-01-06T05:49:43;95311.94;;;1.92;84.80
61961;BME280;47923;42.506;24.192;2024-01-06T05:52:11;95227.53;;;1.39;84.85
61961;BME280;47923;42.506;24.192;2024-01-06T05:54:40;95309.44;;;1.96;85.03
61961;BME280;47923;42.506;24.192;2024-01-06T05:57:07;95227.41;;;1.44;85.31
61961;BME280;47923;42.506;24.192;2024-01-06T05:59:33;95070.09;;;0.52;85.20
61961;BME280;47923;42.506;24.192;2024-01-06T06:01:58;95243.47;;;1.61;85.08
61961;BME280;47923;42.506;24.192;2024-01-06T06:04:24;95304.47;;;2.03;84.92
61961;BME280;47923;42.506;24.192;2024-01-06T06:06:49;95307.13;;;2.03;85.16
61961;BME280;47923;42.506;24.192;2024-01-06T06:09:14;95305.25;;;2.03;84.93
61961;BME280;47923;42.506;24.192;2024-01-06T06:11:40;95112.56;;;0.66;84.38
61961;BME280;47923;42.506;24.192;2024-01-06T06:14:06;95273.53;;;1.84;84.86
61961;BME280;47923;42.506;24.192;2024-01-06T06:16:31;95285.00;;;1.93;85.18
61961;BME280;47923;42.506;24.192;2024-01-06T06:18:57;95299.44;;;2.01;84.98
61961;BME280;47923;42.506;24.192;2024-01-06T06:21:23;95264.25;;;1.82;84.92
61961;BME280;47923;42.506;24.192;2024-01-06T06:23:49;94975.19;;;-0.01;84.55
61961;BME280;47923;42.506;24.192;2024-01-06T06:26:15;95186.03;;;1.38;84.90
61961;BME280;47923;42.506;24.192;2024-01-06T06:28:41;95212.09;;;1.50;84.50
61961;BME280;47923;42.506;24.192;2024-01-06T06:31:07;95194.25;;;1.50;84.72
61961;BME280;47923;42.506;24.192;2024-01-06T06:33:32;95183.88;;;1.40;84.51
61961;BME280;47923;42.506;24.192;2024-01-06T06:36:01;95086.66;;;0.80;84.02
61961;BME280;47923;42.506;24.192;2024-01-06T06:38:27;95214.50;;;1.69;84.12
61961;BME280;47923;42.506;24.192;2024-01-06T06:40:53;95225.56;;;1.84;84.51
61961;BME280;47923;42.506;24.192;2024-01-06T06:43:18;95145.31;;;1.37;84.39
61961;BME280;47923;42.506;24.192;2024-01-06T06:45:44;95237.69;;;1.99;84.01
61961;BME280;47923;42.506;24.192;2024-01-06T06:48:10;95226.88;;;2.04;83.91
61961;BME280;47923;42.506;24.192;2024-01-06T06:50:35;95217.44;;;1.98;83.68
61961;BME280;47923;42.506;24.192;2024-01-06T06:53:01;95269.94;;;2.46;83.72
61961;BME280;47923;42.506;24.192;2024-01-06T06:55:26;95164.75;;;1.78;84.01
61961;BME280;47923;42.506;24.192;2024-01-06T06:57:52;94637.03;;;-1.69;83.58
61961;BME280;47923;42.506;24.192;2024-01-06T07:00:19;95277.03;;;2.59;83.53
61961;BME280;47923;42.506;24.192;2024-01-06T07:02:44;95277.19;;;2.63;83.46
61961;BME280;47923;42.506;24.192;2024-01-06T07:05:10;95164.66;;;2.00;83.08
61961;BME280;47923;42.506;24.192;2024-01-06T07:07:35;95224.94;;;2.44;83.05
61961;BME280;47923;42.506;24.192;2024-01-06T07:10:02;95208.75;;;2.41;82.88
61961;BME280;47923;42.506;24.192;2024-01-06T07:12:28;95166.88;;;2.15;82.35
61961;BME280;47923;42.506;24.192;2024-01-06T07:14:54;95288.38;;;2.99;81.68
61961;BME280;47923;42.506;24.192;2024-01-06T07:17:19;95212.25;;;2.59;81.87
61961;BME280;47923;42.506;24.192;2024-01-06T07:19:45;95240.66;;;2.81;81.50
61961;BME280;47923;42.506;24.192;2024-01-06T07:22:10;95286.00;;;3.15;81.44
61961;BME280;47923;42.506;24.192;2024-01-06T07:24:36;95214.78;;;2.72;81.01
61961;BME280;47923;42.506;24.192;2024-01-06T07:27:02;95222.59;;;2.86;80.95
61961;BME280;47923;42.506;24.192;2024-01-06T07:29:28;95280.06;;;3.10;80.93
61961;BME280;47923;42.506;24.192;2024-01-06T07:31:54;95076.06;;;1.77;81.59
61961;BME280;47923;42.506;24.192;2024-01-06T07:34:19;95013.34;;;1.54;80.96
61961;BME280;47923;42.506;24.192;2024-01-06T07:36:44;95059.19;;;1.99;81.47
61961;BME280;47923;42.506;24.192;2024-01-06T07:39:10;95276.28;;;3.45;80.84
61961;BME280;47923;42.506;24.192;2024-01-06T07:41:35;95275.78;;;3.52;80.52
61961;BME280;47923;42.506;24.192;2024-01-06T07:44:01;95178.50;;;2.97;80.08
61961;BME280;47923;42.506;24.192;2024-01-06T07:46:28;95102.28;;;2.44;80.32
61961;BME280;47923;42.506;24.192;2024-01-06T07:48:54;95264.56;;;3.67;80.56
61961;BME280;47923;42.506;24.192;2024-01-06T07:51:19;95270.53;;;3.73;79.74
61961;BME280;47923;42.506;24.192;2024-01-06T07:53:45;95267.88;;;3.73;79.12
61961;BME280;47923;42.506;24.192;2024-01-06T07:56:10;95052.56;;;2.40;79.65
61961;BME280;47923;42.506;24.192;2024-01-06T07:58:36;95099.09;;;2.77;79.53
61961;BME280;47923;42.506;24.192;2024-01-06T08:01:01;95110.06;;;2.93;78.81
61961;BME280;47923;42.506;24.192;2024-01-06T08:03:27;95175.56;;;3.46;78.70
61961;BME280;47923;42.506;24.192;2024-01-06T08:05:52;95270.91;;;4.09;78.68
61961;BME280;47923;42.506;24.192;2024-01-06T08:08:18;95248.47;;;3.93;77.94
61961;BME280;47923;42.506;24.192;2024-01-06T08:10:44;95225.25;;;3.85;78.60
61961;BME280;47923;42.506;24.192;2024-01-06T08:13:09;95215.28;;;3.94;77.49
61961;BME280;47923;42.506;24.192;2024-01-06T08:15:35;95181.13;;;3.70;77.80
61961;BME280;47923;42.506;24.192;2024-01-06T08:18:00;95134.69;;;3.54;77.23
61961;BME280;47923;42.506;24.192;2024-01-06T08:20:26;95253.91;;;4.43;77.80
61961;BME280;47923;42.506;24.192;2024-01-06T08:22:51;95257.47;;;4.56;76.99
61961;BME280;47923;42.506;24.192;2024-01-06T08:25:17;95078.91;;;3.52;77.18
61961;BME280;47923;42.506;24.192;2024-01-06T08:27:43;95251.03;;;4.78;76.63
61961;BME280;47923;42.506;24.192;2024-01-06T08:30:09;95173.72;;;4.35;75.60
61961;BME280;47923;42.506;24.192;2024-01-06T08:32:35;95125.56;;;4.14;76.22
61961;BME280;47923;42.506;24.192;2024-01-06T08:35:00;95065.13;;;3.71;75.35
61961;BME280;47923;42.506;24.192;2024-01-06T08:37:25;95203.47;;;4.75;75.47
61961;BME280;47923;42.506;24.192;2024-01-06T08:39:51;95083.69;;;3.97;75.14
61961;BME280;47923;42.506;24.192;2024-01-06T08:42:16;95230.97;;;5.05;74.03
61961;BME280;47923;42.506;24.192;2024-01-06T08:44:41;95233.25;;;5.15;73.23
61961;BME280;47923;42.506;24.192;2024-01-06T08:47:09;95257.69;;;5.47;73.54
61961;BME280;47923;42.506;24.192;2024-01-06T08:49:34;95236.59;;;5.45;72.30
61961;BME280;47923;42.506;24.192;2024-01-06T08:52:00;95254.31;;;5.71;71.85
61961;BME280;47923;42.506;24.192;2024-01-06T08:54:25;95127.06;;;4.98;71.22
61961;BME280;47923;42.506;24.192;2024-01-06T08:56:51;95173.25;;;5.74;69.87
61961;BME280;47923;42.506;24.192;2024-01-06T08:59:16;95242.22;;;6.71;68.28
61961;BME280;47923;42.506;24.192;2024-01-06T09:01:42;95184.69;;;6.72;66.64
61961;BME280;47923;42.506;24.192;2024-01-06T09:04:08;95233.78;;;7.25;65.93
61961;BME280;47923;42.506;24.192;2024-01-06T09:06:34;94987.81;;;5.96;64.66
61961;BME280;47923;42.506;24.192;2024-01-06T09:08:59;95171.88;;;7.22;64.71
61961;BME280;47923;42.506;24.192;2024-01-06T09:11:27;95235.31;;;7.98;62.75
61961;BME280;47923;42.506;24.192;2024-01-06T09:13:53;95196.44;;;7.95;60.91
61961;BME280;47923;42.506;24.192;2024-01-06T09:16:19;95166.69;;;7.88;61.38
61961;BME280;47923;42.506;24.192;2024-01-06T09:18:44;95054.69;;;7.17;61.53
61961;BME280;47923;42.506;24.192;2024-01-06T09:21:09;95215.97;;;8.08;60.82
61961;BME280;47923;42.506;24.192;2024-01-06T09:23:35;95161.56;;;7.83;61.52
61961;BME280;47923;42.506;24.192;2024-01-06T09:26:00;95157.06;;;7.87;60.72
61961;BME280;47923;42.506;24.192;2024-01-06T09:28:26;95163.28;;;7.91;61.11
61961;BME280;47923;42.506;24.192;2024-01-06T09:30:51;95088.09;;;7.47;60.08
61961;BME280;47923;42.506;24.192;2024-01-06T09:33:19;95127.72;;;7.51;60.51
61961;BME280;47923;42.506;24.192;2024-01-06T09:35:45;95146.13;;;7.80;60.37
61961;BME280;47923;42.506;24.192;2024-01-06T09:38:10;95037.81;;;7.16;60.12
61961;BME280;47923;42.506;24.192;2024-01-06T09:40:41;95159.91;;;8.10;60.35
61961;BME280;47923;42.506;24.192;2024-01-06T09:43:07;95076.81;;;7.73;60.26
61961;BME280;47923;42.506;24.192;2024-01-06T09:45:33;95102.00;;;8.00;60.84
61961;BME280;47923;42.506;24.192;2024-01-06T09:48:00;95175.41;;;8.48;60.91
61961;BME280;47923;42.506;24.192;2024-01-06T09:50:30;95141.97;;;8.34;60.68
61961;BME280;47923;42.506;24.192;2024-01-06T09:52:56;95138.06;;;8.47;61.22
61961;BME280;47923;42.506;24.192;2024-01-06T09:55:30;95122.28;;;8.45;60.50
61961;BME280;47923;42.506;24.192;2024-01-06T09:57:56;95007.06;;;7.81;59.95
61961;BME280;47923;42.506;24.192;2024-01-06T10:00:21;95153.78;;;8.99;59.01
61961;BME280;47923;42.506;24.192;2024-01-06T10:02:48;95159.94;;;9.19;59.00
61961;BME280;47923;42.506;24.192;2024-01-06T10:05:15;95142.66;;;9.43;57.70
61961;BME280;47923;42.506;24.192;2024-01-06T10:07:42;95081.03;;;8.99;56.57
61961;BME280;47923;42.506;24.192;2024-01-06T10:10:10;95096.13;;;9.04;56.30
61961;BME280;47923;42.506;24.192;2024-01-06T10:12:42;95130.19;;;9.35;56.05
61961;BME280;47923;42.506;24.192;2024-01-06T10:15:09;95115.88;;;9.54;57.53
61961;BME280;47923;42.506;24.192;2024-01-06T10:17:39;94908.53;;;8.30;55.70
61961;BME280;47923;42.506;24.192;2024-01-06T10:20:09;94947.88;;;8.58;55.65
61961;BME280;47923;42.506;24.192;2024-01-06T10:22:41;95118.22;;;9.55;55.42
61961;BME280;47923;42.506;24.192;2024-01-06T10:25:08;94856.25;;;7.89;55.50
61961;BME280;47923;42.506;24.192;2024-01-06T10:27:35;95090.38;;;9.48;55.46
61961;BME280;47923;42.506;24.192;2024-01-06T10:30:01;95066.44;;;9.46;56.08
61961;BME280;47923;42.506;24.192;2024-01-06T10:32:27;94995.88;;;9.18;56.01
61961;BME280;47923;42.506;24.192;2024-01-06T10:34:55;95101.06;;;9.90;55.35
61961;BME280;47923;42.506;24.192;2024-01-06T10:37:20;95100.03;;;9.98;55.16
61961;BME280;47923;42.506;24.192;2024-01-06T10:39:46;95044.66;;;9.55;53.88
61961;BME280;47923;42.506;24.192;2024-01-06T10:42:11;95058.31;;;9.69;55.10
61961;BME280;47923;42.506;24.192;2024-01-06T10:44:39;95084.59;;;9.98;55.46
61961;BME280;47923;42.506;24.192;2024-01-06T10:47:06;95052.56;;;9.93;54.27
61961;BME280;47923;42.506;24.192;2024-01-06T10:49:32;94844.63;;;8.70;54.41
61961;BME280;47923;42.506;24.192;2024-01-06T10:51:59;95069.97;;;10.22;54.73
61961;BME280;47923;42.506;24.192;2024-01-06T10:54:26;95069.84;;;10.15;55.20
61961;BME280;47923;42.506;24.192;2024-01-06T10:56:52;95056.88;;;10.24;54.91
61961;BME280;47923;42.506;24.192;2024-01-06T10:59:21;94989.81;;;10.00;54.24
61961;BME280;47923;42.506;24.192;2024-01-06T11:01:48;95047.44;;;10.41;53.75
61961;BME280;47923;42.506;24.192;2024-01-06T11:04:15;94865.13;;;9.27;53.32
61961;BME280;47923;42.506;24.192;2024-01-06T11:06:42;95034.72;;;10.42;52.76
61961;BME280;47923;42.506;24.192;2024-01-06T11:09:21;95010.34;;;10.08;53.91
61961;BME280;47923;42.506;24.192;2024-01-06T11:11:48;94981.38;;;10.05;53.73
61961;BME280;47923;42.506;24.192;2024-01-06T11:16:46;95041.75;;;10.50;52.92
61961;BME280;47923;42.506;24.192;2024-01-06T11:19:51;95049.84;;;10.50;53.64
61961;BME280;47923;42.506;24.192;2024-01-06T11:22:24;95045.06;;;10.36;53.89
61961;BME280;47923;42.506;24.192;2024-01-06T11:24:57;95035.88;;;10.41;53.60
61961;BME280;47923;42.506;24.192;2024-01-06T11:27:28;95028.44;;;10.34;53.95
61961;BME280;47923;42.506;24.192;2024-01-06T11:29:57;95029.19;;;10.31;54.53
61961;BME280;47923;42.506;24.192;2024-01-06T11:32:28;95029.66;;;10.37;54.92
61961;BME280;47923;42.506;24.192;2024-01-06T11:34:55;94917.66;;;9.67;54.72
61961;BME280;47923;42.506;24.192;2024-01-06T11:40:10;95002.38;;;10.45;54.88
61961;BME280;47923;42.506;24.192;2024-01-06T11:42:46;95004.56;;;10.70;54.39
61961;BME280;47923;42.506;24.192;2024-01-06T11:45:12;94978.78;;;10.79;53.25
61961;BME280;47923;42.506;24.192;2024-01-06T11:47:39;95016.84;;;10.97;53.35
61961;BME280;47923;42.506;24.192;2024-01-06T11:50:05;94877.66;;;10.03;53.77
61961;BME280;47923;42.506;24.192;2024-01-06T11:52:31;95009.09;;;10.96;53.67
61961;BME280;47923;42.506;24.192;2024-01-06T11:54:57;94879.41;;;10.21;51.98
61961;BME280;47923;42.506;24.192;2024-01-06T11:57:28;94948.09;;;10.95;51.77
61961;BME280;47923;42.506;24.192;2024-01-06T11:59:53;94998.63;;;11.35;51.91
61961;BME280;47923;42.506;24.192;2024-01-06T12:02:19;94998.22;;;11.81;50.93
61961;BME280;47923;42.506;24.192;2024-01-06T12:04:49;94835.16;;;11.25;49.64
61961;BME280;47923;42.506;24.192;2024-01-06T12:07:16;94981.63;;;12.62;49.43
61961;BME280;47923;42.506;24.192;2024-01-06T12:09:42;94753.03;;;11.66;48.28
61961;BME280;47923;42.506;24.192;2024-01-06T12:12:08;94957.38;;;13.30;47.85
61961;BME280;47923;42.506;24.192;2024-01-06T12:14:36;94860.09;;;12.75;47.16
61961;BME280;47923;42.506;24.192;2024-01-06T12:17:01;94966.31;;;13.52;46.28
61961;BME280;47923;42.506;24.192;2024-01-06T12:19:32;94906.19;;;13.04;46.81
61961;BME280;47923;42.506;24.192;2024-01-06T12:21:57;94981.75;;;13.19;47.16
61961;BME280;47923;42.506;24.192;2024-01-06T12:24:23;94811.94;;;11.94;48.06
61961;BME280;47923;42.506;24.192;2024-01-06T12:26:49;94946.72;;;12.39;48.58
61961;BME280;47923;42.506;24.192;2024-01-06T12:29:17;94969.50;;;12.31;49.31
61961;BME280;47923;42.506;24.192;2024-01-06T12:31:43;94968.31;;;12.22;49.87
61961;BME280;47923;42.506;24.192;2024-01-06T12:34:10;94960.16;;;12.18;50.05
61961;BME280;47923;42.506;24.192;2024-01-06T12:36:39;94911.34;;;12.00;50.09
61961;BME280;47923;42.506;24.192;2024-01-06T12:39:05;94900.44;;;11.86;50.60
61961;BME280;47923;42.506;24.192;2024-01-06T12:41:31;94808.72;;;11.01;50.89
61961;BME280;47923;42.506;24.192;2024-01-06T12:44:00;94889.78;;;11.52;51.52
61961;BME280;47923;42.506;24.192;2024-01-06T12:46:26;94936.34;;;11.76;52.58
61961;BME280;47923;42.506;24.192;2024-01-06T12:48:52;94847.72;;;10.96;53.64
61961;BME280;47923;42.506;24.192;2024-01-06T12:51:17;94735.75;;;10.39;54.18
61961;BME280;47923;42.506;24.192;2024-01-06T12:53:43;94701.28;;;9.81;55.06
61961;BME280;47923;42.506;24.192;2024-01-06T12:56:08;94615.00;;;9.44;55.00
61961;BME280;47923;42.506;24.192;2024-01-06T12:58:34;94966.34;;;11.60;55.60